createdAt,value
2023-03-11T00:00:48.879Z,41.38
2023-03-11T00:03:29.246Z,40.93
2023-03-11T00:05:58.995Z,40.94
2023-03-11T00:08:28.485Z,41.48
2023-03-11T00:11:00.743Z,40.40
2023-03-11T00:13:31.089Z,40.12
2023-03-11T00:16:00.907Z,39.82
2023-03-11T00:18:31.734Z,39.30
2023-03-11T00:21:00.427Z,39.12
2023-03-11T00:23:29.299Z,38.79
2023-03-11T00:26:00.046Z,38.66
2023-03-11T00:28:28.665Z,38.75
2023-03-11T00:30:57.034Z,38.79
2023-03-11T00:33:25.725Z,38.75
2023-03-11T00:35:54.048Z,39.04
2023-03-11T00:38:23.291Z,39.59
2023-03-11T00:40:51.631Z,39.65
2023-03-11T00:43:20.349Z,38.81
2023-03-11T00:45:48.869Z,38.87
2023-03-11T00:48:17.559Z,38.67
2023-03-11T00:50:46.684Z,38.81
2023-03-11T00:53:15.264Z,38.73
2023-03-11T00:55:44.486Z,38.54
2023-03-11T00:58:14.909Z,38.86
2023-03-11T01:00:53.646Z,38.75
2023-03-11T01:03:23.362Z,38.81
2023-03-11T01:05:52.152Z,39.16
2023-03-11T01:08:20.843Z,38.67
2023-03-11T01:10:49.302Z,38.88
2023-03-11T01:13:18.123Z,39.18
2023-03-11T01:15:46.682Z,38.75
2023-03-11T01:18:16.653Z,38.82
2023-03-11T01:20:45.094Z,38.47
2023-03-11T01:23:14.174Z,38.19
2023-03-11T01:25:42.659Z,38.39
2023-03-11T01:28:11.564Z,38.74
2023-03-11T01:30:41.392Z,38.48
2023-03-11T01:33:18.057Z,38.98
2023-03-11T01:35:46.796Z,38.73
2023-03-11T01:38:16.382Z,38.98
2023-03-11T01:40:47.771Z,39.31
2023-03-11T01:43:43.432Z,38.93
2023-03-11T01:46:54.014Z,39.11
2023-03-11T01:49:26.872Z,38.83
2023-03-11T01:51:58.292Z,39.25
2023-03-11T01:54:32.399Z,39.00
2023-03-11T01:57:01.711Z,38.64
2023-03-11T01:59:33.823Z,38.62
2023-03-11T02:02:22.297Z,38.48
2023-03-11T02:04:51.969Z,38.29
2023-03-11T02:07:20.481Z,38.50
2023-03-11T02:09:52.619Z,38.83
2023-03-11T02:12:21.153Z,38.95
2023-03-11T02:14:51.603Z,38.65
2023-03-11T02:17:20.273Z,38.81
2023-03-11T02:20:12.834Z,38.50
2023-03-11T02:22:42.320Z,38.64
2023-03-11T02:25:41.095Z,38.85
2023-03-11T02:28:12.089Z,38.36
2023-03-11T02:30:42.601Z,38.87
2023-03-11T02:33:11.387Z,38.53
2023-03-11T02:35:40.454Z,38.68
2023-03-11T02:38:09.025Z,38.52
2023-03-11T02:40:57.449Z,38.52
2023-03-11T02:43:42.213Z,38.54
2023-03-11T02:46:12.694Z,38.51
2023-03-11T02:48:41.160Z,38.24
2023-03-11T02:51:09.901Z,38.29
2023-03-11T02:53:45.405Z,38.20
2023-03-11T02:56:15.640Z,38.45
2023-03-11T02:58:44.435Z,38.49
2023-03-11T03:01:13.408Z,38.14
2023-03-11T03:03:45.091Z,38.46
2023-03-11T03:06:14.163Z,38.25
2023-03-11T03:08:42.712Z,38.22
2023-03-11T03:11:11.636Z,38.24
2023-03-11T03:13:41.465Z,38.54
2023-03-11T03:16:10.350Z,38.13
2023-03-11T03:18:38.882Z,38.25
2023-03-11T03:21:07.783Z,38.42
2023-03-11T03:23:37.900Z,38.35
2023-03-11T03:26:06.843Z,38.24
2023-03-11T03:28:38.816Z,38.06
2023-03-11T03:31:10.376Z,37.93
2023-03-11T03:33:41.113Z,38.23
2023-03-11T03:36:12.320Z,38.35
2023-03-11T03:38:44.442Z,37.96
2023-03-11T03:41:16.107Z,38.01
2023-03-11T03:43:44.728Z,37.89
2023-03-11T03:46:13.784Z,37.90
2023-03-11T03:48:46.755Z,37.82
2023-03-11T03:51:15.844Z,37.86
2023-03-11T03:53:56.828Z,37.83
2023-03-11T03:56:27.648Z,38.16
2023-03-11T03:58:56.989Z,38.03
2023-03-11T04:01:29.687Z,37.82
2023-03-11T04:03:59.729Z,38.01
2023-03-11T04:06:28.841Z,37.74
2023-03-11T04:09:02.019Z,37.85
2023-03-11T04:11:34.593Z,37.80
2023-03-11T04:14:05.252Z,37.87
2023-03-11T04:16:37.845Z,37.87
2023-03-11T04:19:11.023Z,37.84
2023-03-11T04:21:40.244Z,37.81
2023-03-11T04:24:08.982Z,38.03
2023-03-11T04:26:40.031Z,38.11
2023-03-11T04:29:12.910Z,38.01
2023-03-11T04:31:45.407Z,37.82
2023-03-11T04:34:13.947Z,37.82
2023-03-11T04:36:43.370Z,37.91
2023-03-11T04:39:15.484Z,37.88
2023-03-11T04:41:46.152Z,37.82
2023-03-11T04:44:18.684Z,37.60
2023-03-11T04:46:47.977Z,37.83
2023-03-11T04:49:17.443Z,37.83
2023-03-11T04:51:46.367Z,37.71
2023-03-11T04:54:17.014Z,38.04
2023-03-11T04:56:45.924Z,37.89
2023-03-11T04:59:14.440Z,37.82
2023-03-11T05:01:45.420Z,37.97
2023-03-11T05:04:13.982Z,38.05
2023-03-11T05:06:43.586Z,38.03
2023-03-11T05:09:13.163Z,38.48
2023-03-11T05:11:43.322Z,38.55
2023-03-11T05:14:13.102Z,38.58
2023-03-11T05:16:41.963Z,38.31
2023-03-11T05:19:30.492Z,38.38
2023-03-11T05:22:00.167Z,38.14
2023-03-11T05:24:29.567Z,37.92
2023-03-11T05:26:58.882Z,37.96
2023-03-11T05:29:28.216Z,37.90
2023-03-11T05:31:57.311Z,37.83
2023-03-11T05:34:25.944Z,37.92
2023-03-11T05:36:55.036Z,37.99
2023-03-11T05:39:24.638Z,37.87
2023-03-11T05:41:53.555Z,38.09
2023-03-11T05:44:22.036Z,38.05
2023-03-11T05:46:51.735Z,38.15
2023-03-11T05:49:21.915Z,38.06
2023-03-11T05:51:55.710Z,38.43
2023-03-11T05:54:27.457Z,38.29
2023-03-11T05:56:56.705Z,38.22
2023-03-11T05:59:26.059Z,38.33
2023-03-11T06:01:59.432Z,38.40
2023-03-11T06:04:27.958Z,38.57
2023-03-11T06:06:56.788Z,38.42
2023-03-11T06:09:27.796Z,38.70
2023-03-11T06:11:57.019Z,38.45
2023-03-11T06:14:31.931Z,38.48
2023-03-11T06:17:04.211Z,38.54
2023-03-11T06:19:32.672Z,38.50
2023-03-11T06:22:01.547Z,38.55
2023-03-11T06:24:31.038Z,38.59
2023-03-11T06:26:59.884Z,38.63
2023-03-11T06:29:30.936Z,38.78
2023-03-11T06:32:00.447Z,39.19
2023-03-11T06:34:29.132Z,39.30
2023-03-11T06:36:59.864Z,39.17
2023-03-11T06:39:28.404Z,38.98
2023-03-11T06:41:57.452Z,38.98
2023-03-11T06:44:30.571Z,39.16
2023-03-11T06:46:59.335Z,39.33
2023-03-11T06:49:27.827Z,39.17
2023-03-11T06:51:57.095Z,39.33
2023-03-11T06:54:25.980Z,39.27
2023-03-11T06:56:54.802Z,39.39
2023-03-11T06:59:24.125Z,39.32
2023-03-11T07:01:55.067Z,39.57
2023-03-11T07:04:24.034Z,39.34
2023-03-11T07:06:53.014Z,39.50
2023-03-11T07:09:25.452Z,39.61
2023-03-11T07:11:55.633Z,39.40
2023-03-11T07:14:30.877Z,38.55
2023-03-11T07:17:00.020Z,39.51
2023-03-11T07:19:35.064Z,39.70
2023-03-11T07:22:03.740Z,39.47
2023-03-11T07:24:32.136Z,39.43
2023-03-11T07:27:00.967Z,39.50
2023-03-11T07:29:29.903Z,39.42
2023-03-11T07:31:58.971Z,39.68
2023-03-11T07:34:27.388Z,39.89
2023-03-11T07:36:56.115Z,39.84
2023-03-11T07:39:25.606Z,40.10
2023-03-11T07:41:54.724Z,39.94
2023-03-11T07:44:23.044Z,39.99
2023-03-11T07:46:51.814Z,39.94
2023-03-11T07:49:20.309Z,40.00
2023-03-11T07:51:49.281Z,39.86
2023-03-11T07:54:17.814Z,40.02
2023-03-11T07:56:47.014Z,39.95
2023-03-11T07:59:15.473Z,40.14
2023-03-11T08:01:47.543Z,40.11
2023-03-11T08:04:17.266Z,40.41
2023-03-11T08:06:47.174Z,40.18
2023-03-11T08:09:15.684Z,40.54
2023-03-11T08:11:44.485Z,40.20
2023-03-11T08:14:13.142Z,40.57
2023-03-11T08:16:41.960Z,40.55
2023-03-11T08:19:14.072Z,40.49
2023-03-11T08:21:42.881Z,40.41
2023-03-11T08:24:13.517Z,40.54
2023-03-11T08:26:42.988Z,40.39
2023-03-11T08:29:11.485Z,40.22
2023-03-11T08:31:40.494Z,40.54
2023-03-11T08:34:10.846Z,40.52
2023-03-11T08:36:39.695Z,40.64
2023-03-11T08:39:08.152Z,40.72
2023-03-11T08:41:36.974Z,40.90
2023-03-11T08:44:05.601Z,40.77
2023-03-11T08:46:37.387Z,40.61
2023-03-11T08:49:06.323Z,40.91
2023-03-11T08:51:35.558Z,40.44
2023-03-11T08:54:04.457Z,40.24
2023-03-11T08:56:33.273Z,40.67
2023-03-11T08:59:02.309Z,40.85
2023-03-11T09:01:31.329Z,40.95
2023-03-11T09:03:59.960Z,41.13
2023-03-11T09:06:30.687Z,41.07
2023-03-11T09:08:58.993Z,41.26
2023-03-11T09:11:28.044Z,41.19
2023-03-11T09:13:56.582Z,41.14
2023-03-11T09:16:25.608Z,41.17
2023-03-11T09:18:54.000Z,41.09
2023-03-11T09:21:22.691Z,41.29
2023-03-11T09:23:51.067Z,41.26
2023-03-11T09:26:19.880Z,41.26
2023-03-11T09:28:49.575Z,41.52
2023-03-11T09:31:18.811Z,41.58
2023-03-11T09:33:47.401Z,41.50
2023-03-11T09:36:18.925Z,41.54
2023-03-11T09:38:47.432Z,41.76
2023-03-11T09:41:18.772Z,41.79
2023-03-11T09:44:08.260Z,41.77
2023-03-11T09:47:02.191Z,41.64
2023-03-11T09:50:07.604Z,41.73
2023-03-11T09:53:03.182Z,42.27
2023-03-11T09:55:55.407Z,42.52
2023-03-11T09:58:44.121Z,42.70
2023-03-11T10:01:36.445Z,42.54
2023-03-11T10:04:21.830Z,42.96
2023-03-11T10:06:50.420Z,42.93
2023-03-11T10:09:34.388Z,43.05
2023-03-11T10:12:33.830Z,43.02
2023-03-11T10:15:12.727Z,43.36
2023-03-11T10:18:08.670Z,43.88
2023-03-11T10:20:58.122Z,44.01
2023-03-11T10:24:04.890Z,44.06
2023-03-11T10:26:55.256Z,44.06
2023-03-11T10:29:56.638Z,44.57
2023-03-11T10:32:41.579Z,45.38
2023-03-11T10:35:21.071Z,45.25
2023-03-11T10:37:56.215Z,45.87
2023-03-11T10:40:33.050Z,45.67
2023-03-11T10:43:21.919Z,45.83
2023-03-11T10:45:51.326Z,46.31
2023-03-11T10:48:20.629Z,46.15
2023-03-11T10:51:11.998Z,46.16
2023-03-11T10:54:06.718Z,46.16
2023-03-11T10:56:37.451Z,45.95
2023-03-11T10:59:46.201Z,45.91
2023-03-11T11:02:33.867Z,45.62
2023-03-11T11:05:20.768Z,45.50
2023-03-11T11:07:50.632Z,45.30
2023-03-11T11:10:25.215Z,45.06
2023-03-11T11:12:57.721Z,44.71
2023-03-11T11:15:32.406Z,44.76
2023-03-11T11:18:25.891Z,44.48
2023-03-11T11:21:24.961Z,44.35
2023-03-11T11:24:25.787Z,44.51
2023-03-11T11:27:14.324Z,44.38
2023-03-11T11:29:43.148Z,44.37
2023-03-11T11:32:20.163Z,44.47
2023-03-11T11:35:07.133Z,44.79
2023-03-11T11:37:39.172Z,44.61
2023-03-11T11:40:19.858Z,44.84
2023-03-11T11:43:17.059Z,45.18
2023-03-11T11:45:48.734Z,45.50
2023-03-11T11:48:23.291Z,45.52
2023-03-11T11:51:00.755Z,45.72
2023-03-11T11:53:57.872Z,45.81
2023-03-11T11:56:26.744Z,45.72
2023-03-11T11:58:55.584Z,46.04
2023-03-11T12:01:39.419Z,46.36
2023-03-11T12:04:56.329Z,46.56
2023-03-11T12:07:52.496Z,46.83
2023-03-11T12:10:58.525Z,46.64
2023-03-11T12:13:42.068Z,46.94
2023-03-11T12:16:24.305Z,46.99
2023-03-11T12:19:07.447Z,46.83
2023-03-11T12:22:02.997Z,47.02
2023-03-11T12:25:22.573Z,47.12
2023-03-11T12:28:40.119Z,47.07
2023-03-11T12:31:10.782Z,47.14
2023-03-11T12:34:02.587Z,47.31
2023-03-11T12:36:36.400Z,47.61
2023-03-11T12:39:07.477Z,47.97
2023-03-11T12:41:42.925Z,47.88
2023-03-11T12:44:31.829Z,48.04
2023-03-11T12:47:00.178Z,48.14
2023-03-11T12:49:32.634Z,48.28
2023-03-11T12:52:13.989Z,47.78
2023-03-11T12:54:49.568Z,47.70
2023-03-11T12:57:32.764Z,47.90
2023-03-11T13:00:23.309Z,47.82
2023-03-11T13:03:55.112Z,47.74
2023-03-11T13:06:51.249Z,46.58
2023-03-11T13:09:19.602Z,45.30
2023-03-11T13:11:48.715Z,44.86
2023-03-11T13:14:33.884Z,44.67
2023-03-11T13:17:27.180Z,42.33
2023-03-11T13:19:59.773Z,42.48
2023-03-11T13:22:53.043Z,42.59
2023-03-11T13:25:54.658Z,42.83
2023-03-11T13:28:28.498Z,42.51
2023-03-11T13:31:36.044Z,41.66
2023-03-11T13:34:24.166Z,41.80
2023-03-11T13:37:19.701Z,42.00
2023-03-11T13:40:14.575Z,41.80
2023-03-11T13:42:52.162Z,42.05
2023-03-11T13:45:29.916Z,42.16
2023-03-11T13:48:21.347Z,42.84
2023-03-11T13:51:17.032Z,42.92
2023-03-11T13:53:58.080Z,42.45
2023-03-11T13:56:29.776Z,41.39
2023-03-11T13:59:35.240Z,41.14
2023-03-11T14:02:20.221Z,41.68
2023-03-11T14:04:54.548Z,41.85
2023-03-11T14:07:30.207Z,41.87
2023-03-11T14:10:18.760Z,41.82
2023-03-11T14:12:47.761Z,41.60
2023-03-11T14:15:27.076Z,41.26
2023-03-11T14:17:55.927Z,41.40
2023-03-11T14:20:28.081Z,41.54
2023-03-11T14:22:57.125Z,41.64
2023-03-11T14:25:27.966Z,41.58
2023-03-11T14:27:59.782Z,42.08
2023-03-11T14:30:34.266Z,42.00
2023-03-11T14:33:23.281Z,42.30
2023-03-11T14:36:11.633Z,42.08
2023-03-11T14:38:44.274Z,42.56
2023-03-11T14:41:13.930Z,43.17
2023-03-11T14:43:46.659Z,43.24
2023-03-11T14:46:26.800Z,43.39
2023-03-11T14:48:56.496Z,43.38
2023-03-11T14:51:29.683Z,43.82
2023-03-11T14:54:22.460Z,43.99
2023-03-11T14:57:19.500Z,44.10
2023-03-11T14:59:50.218Z,44.12
2023-03-11T15:02:33.555Z,44.05
2023-03-11T15:05:06.794Z,44.31
2023-03-11T15:07:37.586Z,44.31
2023-03-11T15:10:11.025Z,44.18
2023-03-11T15:12:43.784Z,44.58
2023-03-11T15:15:25.525Z,44.40
2023-03-11T15:17:59.324Z,44.58
2023-03-11T15:20:34.815Z,44.56
2023-03-11T15:23:06.275Z,44.70
2023-03-11T15:25:37.663Z,44.56
2023-03-11T15:28:25.402Z,44.77
2023-03-11T15:31:22.043Z,44.80
2023-03-11T15:33:52.088Z,44.87
2023-03-11T15:36:40.746Z,44.78
2023-03-11T15:39:32.706Z,44.78
2023-03-11T15:42:08.810Z,44.92
2023-03-11T15:44:41.515Z,44.87
2023-03-11T15:47:21.989Z,45.05
2023-03-11T15:49:50.647Z,44.92
2023-03-11T15:52:19.557Z,45.13
2023-03-11T15:54:55.544Z,45.19
2023-03-11T15:57:27.480Z,45.15
2023-03-11T15:59:56.644Z,45.24
2023-03-11T16:02:28.058Z,45.00
2023-03-11T16:04:57.349Z,45.20
2023-03-11T16:07:38.760Z,45.15
2023-03-11T16:10:09.505Z,45.40
2023-03-11T16:12:38.338Z,45.46
2023-03-11T16:15:08.007Z,45.42
2023-03-11T16:17:48.986Z,45.25
2023-03-11T16:20:20.010Z,45.55
2023-03-11T16:22:50.695Z,45.51
2023-03-11T16:25:26.873Z,45.72
2023-03-11T16:27:56.079Z,45.62
2023-03-11T16:30:28.327Z,45.71
2023-03-11T16:32:57.169Z,45.63
2023-03-11T16:35:25.787Z,45.86
2023-03-11T16:37:54.687Z,45.94
2023-03-11T16:40:28.443Z,45.98
2023-03-11T16:43:06.671Z,45.99
2023-03-11T16:45:35.216Z,45.90
2023-03-11T16:48:04.457Z,45.94
2023-03-11T16:50:34.224Z,46.20
2023-03-11T16:53:03.875Z,46.12
2023-03-11T16:55:32.286Z,46.03
2023-03-11T16:58:01.369Z,46.12
2023-03-11T17:00:29.969Z,46.11
2023-03-11T17:02:58.923Z,46.07
2023-03-11T17:05:27.364Z,46.26
2023-03-11T17:08:01.192Z,46.23
2023-03-11T17:10:30.238Z,46.08
2023-03-11T17:12:59.263Z,46.22
2023-03-11T17:15:27.768Z,46.49
2023-03-11T17:17:56.582Z,46.44
2023-03-11T17:20:25.173Z,46.41
2023-03-11T17:22:54.036Z,46.43
2023-03-11T17:25:22.587Z,46.34
2023-03-11T17:27:51.398Z,46.43
2023-03-11T17:30:35.696Z,46.54
2023-03-11T17:33:05.415Z,46.41
2023-03-11T17:35:34.556Z,46.41
2023-03-11T17:38:03.305Z,46.49
2023-03-11T17:40:32.966Z,46.41
2023-03-11T17:43:01.728Z,46.37
2023-03-11T17:45:30.245Z,46.43
2023-03-11T17:47:59.050Z,46.32
2023-03-11T17:50:27.613Z,46.63
2023-03-11T17:52:56.703Z,46.54
2023-03-11T17:55:25.194Z,46.71
2023-03-11T17:57:53.991Z,46.38
2023-03-11T18:00:22.731Z,46.42
2023-03-11T18:02:51.781Z,46.42
2023-03-11T18:05:21.220Z,46.64
2023-03-11T18:07:50.010Z,46.59
2023-03-11T18:10:18.728Z,46.54
2023-03-11T18:12:47.751Z,46.41
2023-03-11T18:15:19.559Z,46.50
2023-03-11T18:17:48.922Z,46.39
2023-03-11T18:20:17.831Z,46.58
2023-03-11T18:22:47.267Z,46.47
2023-03-11T18:25:16.113Z,46.40
2023-03-11T18:27:44.991Z,46.38
2023-03-11T18:30:14.675Z,46.55
2023-03-11T18:32:44.896Z,46.57
2023-03-11T18:35:14.611Z,46.55
2023-03-11T18:37:43.593Z,46.52
2023-03-11T18:40:12.927Z,46.83
2023-03-11T18:42:41.649Z,46.58
2023-03-11T18:45:12.425Z,46.37
2023-03-11T18:47:41.177Z,46.52
2023-03-11T18:50:10.596Z,46.52
2023-03-11T18:52:39.388Z,46.45
2023-03-11T18:55:08.293Z,46.55
2023-03-11T18:57:37.030Z,46.69
2023-03-11T19:00:06.097Z,46.55
2023-03-11T19:02:34.817Z,46.52
2023-03-11T19:05:04.590Z,46.47
2023-03-11T19:07:33.498Z,46.54
2023-03-11T19:10:02.210Z,46.59
2023-03-11T19:12:33.919Z,46.43
2023-03-11T19:15:02.485Z,46.47
2023-03-11T19:17:31.381Z,46.38
2023-03-11T19:19:59.838Z,46.47
2023-03-11T19:22:28.894Z,46.35
2023-03-11T19:24:57.298Z,46.42
2023-03-11T19:27:25.973Z,46.49
2023-03-11T19:29:54.369Z,46.53
2023-03-11T19:32:23.251Z,46.70
2023-03-11T19:34:51.731Z,46.47
2023-03-11T19:37:20.506Z,46.81
2023-03-11T19:39:48.962Z,46.75
2023-03-11T19:42:17.755Z,46.59
2023-03-11T19:44:46.621Z,46.99
2023-03-11T19:47:15.471Z,46.93
2023-03-11T19:49:43.865Z,46.70
2023-03-11T19:52:12.640Z,46.78
2023-03-11T19:54:41.393Z,46.62
2023-03-11T19:57:10.132Z,46.47
2023-03-11T19:59:38.750Z,46.68
2023-03-11T20:02:10.725Z,46.73
2023-03-11T20:04:42.978Z,46.61
2023-03-11T20:07:12.042Z,46.78
2023-03-11T20:09:40.482Z,46.70
2023-03-11T20:12:09.402Z,46.70
2023-03-11T20:14:37.985Z,46.60
2023-03-11T20:17:07.975Z,46.75
2023-03-11T20:19:36.871Z,46.73
2023-03-11T20:22:05.956Z,46.53
2023-03-11T20:24:34.520Z,46.67
2023-03-11T20:27:03.276Z,46.44
2023-03-11T20:29:31.634Z,46.49
2023-03-11T20:32:00.612Z,46.36
2023-03-11T20:34:29.602Z,46.39
2023-03-11T20:36:58.511Z,46.23
2023-03-11T20:39:26.980Z,46.45
2023-03-11T20:41:55.994Z,46.45
2023-03-11T20:44:24.480Z,46.14
2023-03-11T20:46:55.112Z,46.37
2023-03-11T20:49:23.583Z,46.26
2023-03-11T20:51:52.426Z,46.32
2023-03-11T20:54:20.821Z,46.27
2023-03-11T20:56:51.040Z,46.37
2023-03-11T20:59:19.452Z,46.13
2023-03-11T21:01:49.468Z,46.19
2023-03-11T21:04:18.170Z,46.30
2023-03-11T21:06:50.047Z,46.27
2023-03-11T21:09:19.031Z,46.38
2023-03-11T21:11:47.978Z,46.10
2023-03-11T21:14:17.758Z,46.11
2023-03-11T21:16:46.800Z,46.18
2023-03-11T21:19:15.692Z,46.14
2023-03-11T21:21:44.971Z,46.08
2023-03-11T21:24:14.055Z,46.10
2023-03-11T21:26:43.265Z,46.11
2023-03-11T21:29:12.865Z,45.96
2023-03-11T21:31:41.734Z,46.20
2023-03-11T21:34:12.034Z,46.33
2023-03-11T21:36:41.316Z,46.06
2023-03-11T21:39:10.435Z,46.00
2023-03-11T21:41:40.202Z,46.07
2023-03-11T21:44:08.858Z,46.29
2023-03-11T21:46:37.977Z,46.08
2023-03-11T21:49:06.893Z,46.22
2023-03-11T21:51:35.783Z,45.85
2023-03-11T21:54:05.736Z,45.93
2023-03-11T21:56:34.610Z,46.02
2023-03-11T21:59:04.174Z,46.15
2023-03-11T22:01:34.738Z,45.79
2023-03-11T22:04:03.948Z,45.85
2023-03-11T22:06:33.681Z,46.00
2023-03-11T22:09:02.660Z,45.92
2023-03-11T22:11:31.869Z,46.03
2023-03-11T22:14:01.384Z,46.02
2023-03-11T22:16:30.467Z,45.94
2023-03-11T22:18:59.230Z,45.94
2023-03-11T22:21:28.519Z,46.01
2023-03-11T22:23:57.163Z,45.86
2023-03-11T22:26:26.109Z,45.94
2023-03-11T22:28:54.542Z,45.90
2023-03-11T22:31:23.613Z,45.94
2023-03-11T22:33:52.149Z,45.77
2023-03-11T22:36:20.910Z,45.77
2023-03-11T22:38:50.032Z,45.91
2023-03-11T22:41:20.495Z,45.97
2023-03-11T22:43:49.165Z,45.87
2023-03-11T22:46:18.050Z,45.79
2023-03-11T22:48:46.666Z,45.97
2023-03-11T22:51:15.524Z,45.82
2023-03-11T22:53:43.928Z,45.72
2023-03-11T22:56:14.811Z,45.78
2023-03-11T22:58:43.273Z,45.91
2023-03-11T23:01:12.851Z,46.01
2023-03-11T23:03:42.504Z,45.98
2023-03-11T23:06:15.702Z,45.83
2023-03-11T23:08:44.312Z,46.07
2023-03-11T23:11:16.045Z,45.73
2023-03-11T23:13:44.744Z,45.84
2023-03-11T23:16:21.972Z,45.94
2023-03-11T23:18:57.376Z,45.74
2023-03-11T23:21:29.424Z,45.83
2023-03-11T23:23:58.777Z,45.89
2023-03-11T23:26:27.934Z,45.91
2023-03-11T23:28:56.546Z,45.78
2023-03-11T23:31:28.009Z,45.99
2023-03-11T23:33:56.525Z,45.82
2023-03-11T23:36:30.592Z,45.92
2023-03-11T23:38:59.285Z,45.79
2023-03-11T23:41:29.457Z,45.71
2023-03-11T23:43:57.927Z,45.64
2023-03-11T23:46:26.725Z,45.99
2023-03-11T23:48:55.184Z,45.73
2023-03-11T23:51:23.934Z,45.92
2023-03-11T23:53:52.315Z,45.72
2023-03-11T23:56:21.076Z,45.84
2023-03-11T23:58:49.496Z,45.65
